createdAt,value
2023-05-14T00:01:01.085Z,96595.63
2023-05-14T00:03:29.002Z,96600.22
2023-05-14T00:05:56.929Z,96599.38
2023-05-14T00:08:24.811Z,96588.41
2023-05-14T00:10:53.335Z,96588.41
2023-05-14T00:13:21.152Z,96579.03
2023-05-14T00:15:49.038Z,96577.50
2023-05-14T00:18:18.254Z,96574.47
2023-05-14T00:20:46.189Z,96570.03
2023-05-14T00:23:14.056Z,96569.31
2023-05-14T00:25:41.949Z,96575.44
2023-05-14T00:28:09.860Z,96571.81
2023-05-14T00:30:37.709Z,96573.50
2023-05-14T00:33:05.588Z,96577.09
2023-05-14T00:35:35.344Z,96570.25
2023-05-14T00:38:03.170Z,96571.09
2023-05-14T00:40:31.181Z,96565.81
2023-05-14T00:42:59.050Z,96562.47
2023-05-14T00:45:27.073Z,96553.81
2023-05-14T00:47:55.571Z,96552.00
2023-05-14T00:50:24.105Z,96547.09
2023-05-14T00:52:53.869Z,96556.84
2023-05-14T00:55:22.797Z,96552.91
2023-05-14T00:57:51.969Z,96543.03
2023-05-14T01:00:20.230Z,96550.00
2023-05-14T01:02:48.239Z,96542.31
2023-05-14T01:05:16.431Z,96543.19
2023-05-14T01:07:55.463Z,96536.78
2023-05-14T01:10:30.032Z,96543.28
2023-05-14T01:13:05.129Z,96545.09
2023-05-14T01:15:34.496Z,96531.16
2023-05-14T01:18:05.614Z,96539.94
2023-05-14T01:20:33.665Z,96532.81
2023-05-14T01:23:02.924Z,96531.72
2023-05-14T01:25:32.266Z,96524.88
2023-05-14T01:28:07.559Z,96525.03
2023-05-14T01:30:38.474Z,96516.38
2023-05-14T01:33:12.022Z,96529.34
2023-05-14T01:35:41.074Z,96524.88
2023-05-14T01:38:12.557Z,96526.81
2023-05-14T01:40:41.219Z,96527.09
2023-05-14T01:43:09.532Z,96528.06
2023-05-14T01:45:38.120Z,96525.44
2023-05-14T01:48:06.584Z,96525.66
2023-05-14T01:50:34.602Z,96527.47
2023-05-14T01:53:02.508Z,96529.16
2023-05-14T01:55:31.796Z,96528.31
2023-05-14T01:57:59.858Z,96529.28
2023-05-14T02:00:28.246Z,96528.31
2023-05-14T02:02:56.183Z,96527.47
2023-05-14T02:05:24.561Z,96523.88
2023-05-14T02:07:54.868Z,96518.00
2023-05-14T02:10:22.946Z,96518.97
2023-05-14T02:12:52.332Z,96515.47
2023-05-14T02:15:20.152Z,96514.56
2023-05-14T02:17:48.514Z,96526.13
2023-05-14T02:20:16.564Z,96523.00
2023-05-14T02:22:46.113Z,96523.00
2023-05-14T02:25:14.108Z,96512.50
2023-05-14T02:27:41.991Z,96520.28
2023-05-14T02:30:12.644Z,96515.53
2023-05-14T02:32:40.616Z,96527.66
2023-05-14T02:35:09.485Z,96525.53
2023-05-14T02:37:38.368Z,96534.66
2023-05-14T02:40:08.041Z,96528.06
2023-05-14T02:42:36.044Z,96528.44
2023-05-14T02:45:03.915Z,96523.66
2023-05-14T02:47:33.178Z,96526.06
2023-05-14T02:50:01.001Z,96526.78
2023-05-14T02:52:28.822Z,96525.34
2023-05-14T02:54:56.713Z,96526.91
2023-05-14T02:57:24.745Z,96525.72
2023-05-14T02:59:52.563Z,96525.47
2023-05-14T03:02:21.344Z,96527.28
2023-05-14T03:04:51.514Z,96522.00
2023-05-14T03:07:19.308Z,96525.63
2023-05-14T03:09:47.164Z,96528.38
2023-05-14T03:12:15.147Z,96531.13
2023-05-14T03:14:43.004Z,96529.19
2023-05-14T03:17:11.577Z,96520.69
2023-05-14T03:19:40.568Z,96522.47
2023-05-14T03:22:09.990Z,96521.38
2023-05-14T03:24:40.297Z,96525.00
2023-05-14T03:27:08.237Z,96526.81
2023-05-14T03:29:36.214Z,96525.13
2023-05-14T03:32:04.549Z,96525.00
2023-05-14T03:34:32.421Z,96528.63
2023-05-14T03:37:00.276Z,96529.31
2023-05-14T03:39:29.470Z,96530.19
2023-05-14T03:41:58.913Z,96525.84
2023-05-14T03:44:26.996Z,96531.28
2023-05-14T03:46:54.824Z,96530.28
2023-05-14T03:49:23.117Z,96527.91
2023-05-14T03:51:51.686Z,96525.50
2023-05-14T03:54:19.646Z,96530.94
2023-05-14T03:56:48.995Z,96521.06
2023-05-14T03:59:16.861Z,96523.84
2023-05-14T04:01:45.503Z,96525.28
2023-05-14T04:04:13.449Z,96524.41
2023-05-14T04:06:41.411Z,96523.72
2023-05-14T04:09:10.874Z,96523.72
2023-05-14T04:11:38.799Z,96521.19
2023-05-14T04:14:08.398Z,96528.03
2023-05-14T04:16:36.364Z,96520.09
2023-05-14T04:19:04.947Z,96525.13
2023-05-14T04:21:32.931Z,96526.81
2023-05-14T04:24:00.784Z,96527.19
2023-05-14T04:26:28.598Z,96518.44
2023-05-14T04:28:56.582Z,96520.56
2023-05-14T04:31:26.090Z,96515.53
2023-05-14T04:33:54.054Z,96512.88
2023-05-14T04:36:21.994Z,96514.56
2023-05-14T04:38:49.910Z,96513.72
2023-05-14T04:41:17.711Z,96514.69
2023-05-14T04:43:46.177Z,96524.41
2023-05-14T04:46:14.136Z,96517.09
2023-05-14T04:48:43.495Z,96514.22
2023-05-14T04:51:11.560Z,96519.88
2023-05-14T04:53:39.508Z,96511.81
2023-05-14T04:56:07.810Z,96518.44
2023-05-14T04:58:35.659Z,96521.06
2023-05-14T05:01:07.396Z,96527.91
2023-05-14T05:03:35.406Z,96523.09
2023-05-14T05:06:04.957Z,96529.47
2023-05-14T05:08:32.866Z,96530.47
2023-05-14T05:11:00.771Z,96524.19
2023-05-14T05:13:28.567Z,96519.63
2023-05-14T05:15:56.508Z,96522.88
2023-05-14T05:18:24.530Z,96521.56
2023-05-14T05:20:52.477Z,96523.97
2023-05-14T05:23:21.951Z,96516.63
2023-05-14T05:25:50.501Z,96524.28
2023-05-14T05:28:18.435Z,96517.59
2023-05-14T05:30:46.312Z,96517.09
2023-05-14T05:33:15.382Z,96509.53
2023-05-14T05:35:44.546Z,96520.59
2023-05-14T05:38:12.438Z,96516.50
2023-05-14T05:40:41.698Z,96516.28
2023-05-14T05:43:09.563Z,96514.81
2023-05-14T05:45:37.387Z,96524.19
2023-05-14T05:48:05.751Z,96516.41
2023-05-14T05:50:33.591Z,96523.25
2023-05-14T05:53:01.565Z,96525.16
2023-05-14T05:55:30.312Z,96518.28
2023-05-14T05:58:00.881Z,96518.53
2023-05-14T06:00:28.878Z,96518.69
2023-05-14T06:02:56.969Z,96521.06
2023-05-14T06:05:24.954Z,96526.34
2023-05-14T06:07:53.403Z,96520.09
2023-05-14T06:10:21.460Z,96519.16
2023-05-14T06:12:49.299Z,96526.09
2023-05-14T06:15:19.415Z,96521.56
2023-05-14T06:17:47.459Z,96529.56
2023-05-14T06:20:15.451Z,96528.41
2023-05-14T06:22:43.386Z,96528.03
2023-05-14T06:25:12.332Z,96532.47
2023-05-14T06:27:40.222Z,96532.94
2023-05-14T06:30:09.185Z,96536.41
2023-05-14T06:32:38.666Z,96529.31
2023-05-14T06:35:07.614Z,96529.53
2023-05-14T06:37:35.714Z,96537.00
2023-05-14T06:40:03.856Z,96539.25
2023-05-14T06:42:31.810Z,96534.91
2023-05-14T06:44:59.915Z,96523.59
2023-05-14T06:47:28.099Z,96528.38
2023-05-14T06:49:58.908Z,96531.47
2023-05-14T06:52:27.441Z,96523.78
2023-05-14T06:54:55.259Z,96523.66
2023-05-14T06:57:23.829Z,96528.44
2023-05-14T06:59:51.961Z,96517.47
2023-05-14T07:02:19.890Z,96522.06
2023-05-14T07:04:48.129Z,96520.13
2023-05-14T07:07:20.671Z,96518.66
2023-05-14T07:09:48.798Z,96520.03
2023-05-14T07:12:16.769Z,96521.28
2023-05-14T07:14:44.687Z,96524.72
2023-05-14T07:17:12.719Z,96530.25
2023-05-14T07:19:40.950Z,96520.75
2023-05-14T07:22:08.749Z,96518.19
2023-05-14T07:24:37.950Z,96520.44
2023-05-14T07:27:06.468Z,96520.91
2023-05-14T07:29:35.065Z,96515.22
2023-05-14T07:32:02.923Z,96512.97
2023-05-14T07:34:30.871Z,96512.97
2023-05-14T07:36:58.827Z,96514.34
2023-05-14T07:39:26.620Z,96513.41
2023-05-14T07:41:55.899Z,96508.47
2023-05-14T07:44:23.746Z,96508.59
2023-05-14T07:46:51.696Z,96507.53
2023-05-14T07:49:19.535Z,96506.81
2023-05-14T07:51:47.369Z,96509.97
2023-05-14T07:54:15.174Z,96508.59
2023-05-14T07:56:42.997Z,96504.19
2023-05-14T07:59:12.245Z,96505.00
2023-05-14T08:01:40.122Z,96503.81
2023-05-14T08:04:08.146Z,96507.59
2023-05-14T08:06:36.099Z,96515.38
2023-05-14T08:09:05.374Z,96513.44
2023-05-14T08:11:33.221Z,96504.09
2023-05-14T08:14:01.063Z,96511.09
2023-05-14T08:16:30.274Z,96511.81
2023-05-14T08:18:58.345Z,96505.41
2023-05-14T08:21:26.329Z,96508.47
2023-05-14T08:23:54.370Z,96499.81
2023-05-14T08:26:22.922Z,96503.19
2023-05-14T08:28:50.923Z,96493.88
2023-05-14T08:31:18.940Z,96497.63
2023-05-14T08:33:48.276Z,96495.25
2023-05-14T08:36:16.362Z,96489.38
2023-05-14T08:38:45.382Z,96483.91
2023-05-14T08:41:16.156Z,96491.59
2023-05-14T08:43:50.264Z,96489.75
2023-05-14T08:46:19.084Z,96486.38
2023-05-14T08:48:52.886Z,96479.53
2023-05-14T08:51:21.007Z,96482.19
2023-05-14T08:53:49.154Z,96491.16
2023-05-14T08:56:20.203Z,96480.38
2023-05-14T08:58:48.176Z,96474.13
2023-05-14T09:01:16.107Z,96471.16
2023-05-14T09:03:45.302Z,96475.06
2023-05-14T09:06:16.782Z,96474.50
2023-05-14T09:08:45.103Z,96468.34
2023-05-14T09:11:13.526Z,96472.06
2023-05-14T09:13:41.540Z,96477.34
2023-05-14T09:16:09.513Z,96473.66
2023-05-14T09:18:38.183Z,96463.72
2023-05-14T09:21:06.377Z,96456.66
2023-05-14T09:23:35.772Z,96466.84
2023-05-14T09:26:06.601Z,96458.06
2023-05-14T09:28:34.571Z,96453.44
2023-05-14T09:31:03.937Z,96450.88
2023-05-14T09:33:32.924Z,96446.31
2023-05-14T09:36:01.468Z,96444.59
2023-05-14T09:38:30.770Z,96448.78
2023-05-14T09:41:00.845Z,96451.88
2023-05-14T09:43:28.819Z,96452.09
2023-05-14T09:45:56.823Z,96449.75
2023-05-14T09:48:24.865Z,96451.94
2023-05-14T09:50:52.945Z,96453.09
2023-05-14T09:53:21.043Z,96452.69
2023-05-14T09:55:49.324Z,96445.25
2023-05-14T09:58:18.978Z,96448.84
2023-05-14T10:00:48.298Z,96441.25
2023-05-14T10:03:19.614Z,96445.88
2023-05-14T10:05:50.984Z,96444.97
2023-05-14T10:08:25.407Z,96438.41
2023-05-14T10:10:55.686Z,96441.03
2023-05-14T10:13:28.977Z,96435.19
2023-05-14T10:16:02.361Z,96439.88
2023-05-14T10:18:32.879Z,96442.41
2023-05-14T10:21:06.783Z,96435.56
2023-05-14T10:23:37.773Z,96430.25
2023-05-14T10:26:06.932Z,96430.78
2023-05-14T10:28:36.770Z,96435.41
2023-05-14T10:31:04.863Z,96420.97
2023-05-14T10:33:48.141Z,96427.13
2023-05-14T10:36:16.133Z,96429.13
2023-05-14T10:38:44.309Z,96436.09
2023-05-14T10:41:15.073Z,96437.38
2023-05-14T10:43:44.976Z,96430.63
2023-05-14T10:46:15.162Z,96436.09
2023-05-14T10:48:45.312Z,96424.84
2023-05-14T10:51:14.038Z,96424.91
2023-05-14T10:53:43.529Z,96423.94
2023-05-14T10:56:12.861Z,96418.59
2023-05-14T10:58:43.359Z,96424.44
2023-05-14T11:01:14.176Z,96419.94
2023-05-14T11:03:45.069Z,96412.53
2023-05-14T11:06:16.143Z,96412.97
2023-05-14T11:08:46.552Z,96411.28
2023-05-14T11:11:15.189Z,96403.34
2023-05-14T11:13:43.992Z,96396.56
2023-05-14T11:16:23.469Z,96394.69
2023-05-14T11:19:02.853Z,96394.41
2023-05-14T11:21:31.832Z,96396.53
2023-05-14T11:24:01.482Z,96385.72
2023-05-14T11:26:29.598Z,96383.69
2023-05-14T11:28:57.852Z,96388.19
2023-05-14T11:31:27.847Z,96381.91
2023-05-14T11:33:56.476Z,96379.09
2023-05-14T11:36:24.500Z,96367.88
2023-05-14T11:38:52.851Z,96382.09
2023-05-14T11:41:23.075Z,96378.38
2023-05-14T11:43:51.541Z,96370.66
2023-05-14T11:46:19.973Z,96383.31
2023-05-14T11:48:49.523Z,96380.94
2023-05-14T11:51:17.567Z,96377.97
2023-05-14T11:53:46.748Z,96375.31
2023-05-14T11:56:14.828Z,96380.13
2023-05-14T11:58:48.514Z,96374.16
2023-05-14T12:01:16.862Z,96378.66
2023-05-14T12:03:44.878Z,96374.28
2023-05-14T12:06:14.336Z,96369.63
2023-05-14T12:08:42.373Z,96371.63
2023-05-14T12:11:10.560Z,96366.59
2023-05-14T12:13:38.534Z,96365.94
2023-05-14T12:16:07.385Z,96363.28
2023-05-14T12:18:35.650Z,96355.97
2023-05-14T12:21:05.094Z,96356.16
2023-05-14T12:23:34.583Z,96352.25
2023-05-14T12:26:03.648Z,96349.41
2023-05-14T12:28:32.336Z,96342.22
2023-05-14T12:31:00.928Z,96346.25
2023-05-14T12:33:29.071Z,96347.06
2023-05-14T12:36:07.411Z,96343.38
2023-05-14T12:38:49.938Z,96330.59
2023-05-14T12:41:18.486Z,96331.47
2023-05-14T12:43:49.884Z,96326.88
2023-05-14T12:46:18.182Z,96321.19
2023-05-14T12:48:46.447Z,96325.72
2023-05-14T12:51:14.540Z,96316.19
2023-05-14T12:53:42.876Z,96322.00
2023-05-14T12:56:12.727Z,96317.84
2023-05-14T12:58:41.092Z,96319.50
2023-05-14T13:01:09.136Z,96313.34
2023-05-14T13:03:37.162Z,96321.34
2023-05-14T13:06:05.413Z,96310.50
2023-05-14T13:08:33.440Z,96320.03
2023-05-14T13:11:01.463Z,96312.84
2023-05-14T13:13:30.845Z,96310.53
2023-05-14T13:15:58.879Z,96311.50
2023-05-14T13:18:27.293Z,96304.09
2023-05-14T13:20:55.322Z,96305.41
2023-05-14T13:23:23.403Z,96299.53
2023-05-14T13:25:51.547Z,96304.25
2023-05-14T13:28:19.364Z,96304.25
2023-05-14T13:31:09.045Z,96306.78
2023-05-14T13:33:37.779Z,96302.13
2023-05-14T13:36:06.377Z,96304.50
2023-05-14T13:38:34.227Z,96291.47
2023-05-14T13:41:03.008Z,96287.69
2023-05-14T13:43:31.784Z,96282.50
2023-05-14T13:46:01.794Z,96283.97
2023-05-14T13:48:31.007Z,96277.78
2023-05-14T13:50:59.283Z,96284.94
2023-05-14T13:53:27.924Z,96276.81
2023-05-14T13:55:58.349Z,96282.81
2023-05-14T13:58:27.575Z,96277.09
2023-05-14T14:00:56.648Z,96274.44
2023-05-14T14:03:25.888Z,96274.13
2023-05-14T14:05:53.738Z,96272.44
2023-05-14T14:08:23.895Z,96265.47
2023-05-14T14:10:54.444Z,96259.97
2023-05-14T14:13:22.769Z,96266.63
2023-05-14T14:15:51.282Z,96262.47
2023-05-14T14:18:19.192Z,96257.13
2023-05-14T14:20:48.589Z,96271.13
2023-05-14T14:23:16.506Z,96261.13
2023-05-14T14:25:44.420Z,96264.81
2023-05-14T14:28:12.314Z,96264.50
2023-05-14T14:30:40.265Z,96265.38
2023-05-14T14:33:08.290Z,96258.53
2023-05-14T14:35:37.374Z,96257.19
2023-05-14T14:38:06.657Z,96263.53
2023-05-14T14:40:34.768Z,96263.03
2023-05-14T14:43:03.078Z,96256.88
2023-05-14T14:45:31.143Z,96247.22
2023-05-14T14:48:23.558Z,96248.22
2023-05-14T14:50:51.929Z,96244.00
2023-05-14T14:53:21.273Z,96244.03
2023-05-14T14:55:49.340Z,96250.03
2023-05-14T14:58:17.723Z,96246.84
2023-05-14T15:00:45.706Z,96255.84
2023-05-14T15:03:15.054Z,96256.84
2023-05-14T15:05:43.517Z,96244.53
2023-05-14T15:08:11.509Z,96252.03
2023-05-14T15:10:41.593Z,96245.53
2023-05-14T15:13:11.129Z,96248.50
2023-05-14T15:15:39.034Z,96246.81
2023-05-14T15:18:07.048Z,96244.34
2023-05-14T15:20:35.010Z,96245.00
2023-05-14T15:23:03.213Z,96244.47
2023-05-14T15:25:31.633Z,96242.63
2023-05-14T15:28:00.824Z,96241.09
2023-05-14T15:30:28.745Z,96232.47
2023-05-14T15:32:56.790Z,96241.63
2023-05-14T15:35:25.172Z,96236.22
2023-05-14T15:37:56.502Z,96242.09
2023-05-14T15:40:24.618Z,96229.06
2023-05-14T15:42:52.689Z,96224.25
2023-05-14T15:45:22.200Z,96233.19
2023-05-14T15:47:50.083Z,96238.38
2023-05-14T15:50:18.018Z,96242.41
2023-05-14T15:52:46.310Z,96232.75
2023-05-14T15:55:14.167Z,96238.75
2023-05-14T15:57:42.042Z,96241.72
2023-05-14T16:00:11.125Z,96234.94
2023-05-14T16:02:40.853Z,96229.03
2023-05-14T16:05:09.457Z,96231.47
2023-05-14T16:07:37.640Z,96224.00
2023-05-14T16:10:06.545Z,96235.38
2023-05-14T16:12:34.516Z,96225.53
2023-05-14T16:15:02.475Z,96240.06
2023-05-14T16:17:31.766Z,96227.53
2023-05-14T16:20:01.995Z,96226.53
2023-05-14T16:22:31.927Z,96233.81
2023-05-14T16:25:02.584Z,96232.81
2023-05-14T16:27:31.401Z,96232.97
2023-05-14T16:29:59.336Z,96240.06
2023-05-14T16:32:27.707Z,96249.22
2023-05-14T16:34:56.487Z,96239.22
2023-05-14T16:37:25.817Z,96231.22
2023-05-14T16:39:53.664Z,96231.44
2023-05-14T16:42:21.578Z,96229.56
2023-05-14T16:44:49.444Z,96242.78
2023-05-14T16:47:17.324Z,96244.78
2023-05-14T16:49:45.338Z,96239.16
2023-05-14T16:52:13.470Z,96234.63
2023-05-14T16:54:42.708Z,96233.13
2023-05-14T16:57:10.602Z,96238.34
2023-05-14T16:59:38.411Z,96235.19
2023-05-14T17:02:06.307Z,96235.38
2023-05-14T17:04:38.690Z,96234.69
2023-05-14T17:07:06.840Z,96231.34
2023-05-14T17:09:34.671Z,96232.84
2023-05-14T17:12:04.193Z,96229.53
2023-05-14T17:14:32.110Z,96234.38
2023-05-14T17:16:59.989Z,96232.69
2023-05-14T17:19:27.943Z,96228.69
2023-05-14T17:21:55.839Z,96238.22
2023-05-14T17:24:23.819Z,96235.19
2023-05-14T17:26:51.793Z,96241.53
2023-05-14T17:29:21.341Z,96233.50
2023-05-14T17:31:49.278Z,96248.97
2023-05-14T17:34:17.729Z,96250.47
2023-05-14T17:36:47.125Z,96250.31
2023-05-14T17:39:14.969Z,96256.81
2023-05-14T17:41:43.147Z,96250.13
2023-05-14T17:44:12.888Z,96252.94
2023-05-14T17:46:44.760Z,96247.75
2023-05-14T17:49:12.966Z,96253.91
2023-05-14T17:51:41.006Z,96257.06
2023-05-14T17:54:09.087Z,96257.06
2023-05-14T17:56:37.178Z,96255.06
2023-05-14T17:59:05.053Z,96253.19
2023-05-14T18:01:33.032Z,96251.19
2023-05-14T18:04:02.546Z,96252.03
2023-05-14T18:06:30.938Z,96250.66
2023-05-14T18:08:58.780Z,96259.47
2023-05-14T18:11:32.747Z,96265.94
2023-05-14T18:14:00.721Z,96266.56
2023-05-14T18:16:29.006Z,96259.75
2023-05-14T18:18:57.218Z,96265.53
2023-05-14T18:21:26.461Z,96270.88
2023-05-14T18:23:54.358Z,96279.66
2023-05-14T18:26:23.166Z,96276.63
2023-05-14T18:28:51.092Z,96266.47
2023-05-14T18:31:19.125Z,96269.44
2023-05-14T18:33:47.200Z,96271.72
2023-05-14T18:36:15.076Z,96273.75
2023-05-14T18:38:44.298Z,96273.31
2023-05-14T18:41:12.218Z,96271.44
2023-05-14T18:43:40.079Z,96266.75
2023-05-14T18:46:08.107Z,96271.69
2023-05-14T18:48:36.398Z,96274.13
2023-05-14T18:51:05.370Z,96265.97
2023-05-14T18:53:33.318Z,96267.59
2023-05-14T18:56:02.616Z,96265.38
2023-05-14T18:58:30.499Z,96268.44
2023-05-14T19:00:59.053Z,96279.97
2023-05-14T19:03:27.107Z,96272.47
2023-05-14T19:05:55.080Z,96276.56
2023-05-14T19:08:22.973Z,96279.00
2023-05-14T19:10:50.941Z,96276.78
2023-05-14T19:13:20.289Z,96278.53
2023-05-14T19:15:48.695Z,96279.16
2023-05-14T19:18:17.682Z,96281.25
2023-05-14T19:20:46.602Z,96292.19
2023-05-14T19:23:14.498Z,96293.78
2023-05-14T19:25:42.432Z,96292.00
2023-05-14T19:28:10.457Z,96292.56
2023-05-14T19:30:39.690Z,96299.06
2023-05-14T19:33:07.534Z,96296.69
2023-05-14T19:35:35.525Z,96301.06
2023-05-14T19:38:03.409Z,96299.72
2023-05-14T19:40:31.358Z,96305.47
2023-05-14T19:42:59.464Z,96308.28
2023-05-14T19:45:27.469Z,96304.09
2023-05-14T19:47:56.983Z,96302.97
2023-05-14T19:50:24.931Z,96311.66
2023-05-14T19:52:52.847Z,96317.28
2023-05-14T19:55:20.711Z,96306.41
2023-05-14T19:57:48.589Z,96314.78
2023-05-14T20:00:17.033Z,96314.50
2023-05-14T20:02:47.773Z,96315.09
2023-05-14T20:05:17.360Z,96316.22
2023-05-14T20:07:47.114Z,96317.91
2023-05-14T20:10:15.607Z,96312.31
2023-05-14T20:12:43.564Z,96315.25
2023-05-14T20:15:12.055Z,96316.38
2023-05-14T20:17:39.959Z,96317.50
2023-05-14T20:20:09.965Z,96312.47
2023-05-14T20:22:40.027Z,96310.41
2023-05-14T20:25:08.930Z,96309.94
2023-05-14T20:27:37.115Z,96306.75
2023-05-14T20:30:06.671Z,96308.69
2023-05-14T20:32:34.627Z,96307.28
2023-05-14T20:35:02.917Z,96312.16
2023-05-14T20:37:32.382Z,96305.47
2023-05-14T20:40:02.339Z,96305.03
2023-05-14T20:42:30.281Z,96296.38
2023-05-14T20:44:58.142Z,96296.81
2023-05-14T20:47:28.952Z,96290.56
2023-05-14T20:49:56.917Z,96282.72
2023-05-14T20:52:24.830Z,96286.78
2023-05-14T20:54:52.784Z,96284.25
2023-05-14T20:57:22.558Z,96283.00
2023-05-14T20:59:50.465Z,96286.63
2023-05-14T21:02:18.532Z,96292.47
2023-05-14T21:04:46.937Z,96294.66
2023-05-14T21:07:14.768Z,96293.28
2023-05-14T21:09:43.936Z,96297.28
2023-05-14T21:12:12.037Z,96295.75
2023-05-14T21:14:42.754Z,96301.63
2023-05-14T21:17:10.638Z,96296.56
2023-05-14T21:19:38.452Z,96296.13
2023-05-14T21:22:07.406Z,96293.19
2023-05-14T21:24:35.401Z,96291.25
2023-05-14T21:27:03.340Z,96291.78
2023-05-14T21:29:31.251Z,96287.75
2023-05-14T21:32:00.631Z,96298.44
2023-05-14T21:34:29.794Z,96294.13
2023-05-14T21:36:59.206Z,96293.69
2023-05-14T21:39:27.068Z,96293.00
2023-05-14T21:41:54.989Z,96291.00
2023-05-14T21:44:23.033Z,96293.78
2023-05-14T21:46:50.905Z,96288.75
2023-05-14T21:49:20.131Z,96290.72
2023-05-14T21:51:52.830Z,96284.44
2023-05-14T21:54:20.934Z,96287.47
2023-05-14T21:56:49.146Z,96290.09
2023-05-14T21:59:17.480Z,96286.72
2023-05-14T22:02:05.316Z,96290.34
2023-05-14T22:04:35.261Z,96295.75
2023-05-14T22:07:04.048Z,96288.22
2023-05-14T22:09:32.059Z,96295.16
2023-05-14T22:12:00.803Z,96291.81
2023-05-14T22:14:28.785Z,96289.72
2023-05-14T22:16:57.728Z,96293.47
2023-05-14T22:19:26.820Z,96281.09
2023-05-14T22:21:56.107Z,96278.63
2023-05-14T22:24:24.015Z,96276.09
2023-05-14T22:26:51.970Z,96277.03
2023-05-14T22:29:19.797Z,96272.28
2023-05-14T22:31:47.765Z,96272.28
2023-05-14T22:34:16.077Z,96276.88
2023-05-14T22:36:44.028Z,96272.81
2023-05-14T22:39:13.561Z,96271.53
2023-05-14T22:41:41.659Z,96264.25
2023-05-14T22:44:09.755Z,96269.78
2023-05-14T22:46:38.130Z,96267.41
2023-05-14T22:49:06.036Z,96270.03
2023-05-14T22:51:33.913Z,96265.97
2023-05-14T22:54:01.739Z,96267.66
2023-05-14T22:56:31.137Z,96264.53
2023-05-14T22:59:00.233Z,96258.81
2023-05-14T23:01:28.459Z,96257.97
2023-05-14T23:03:56.585Z,96256.88
2023-05-14T23:06:25.562Z,96257.97
2023-05-14T23:08:53.438Z,96261.00
2023-05-14T23:11:21.377Z,96259.44
2023-05-14T23:13:50.604Z,96255.25
2023-05-14T23:16:18.663Z,96254.28
2023-05-14T23:18:46.772Z,96253.78
2023-05-14T23:21:15.036Z,96250.69
2023-05-14T23:23:42.962Z,96254.28
2023-05-14T23:26:10.870Z,96243.53
2023-05-14T23:28:38.739Z,96249.53
2023-05-14T23:31:08.185Z,96248.38
2023-05-14T23:33:36.140Z,96237.53
2023-05-14T23:36:05.096Z,96239.72
2023-05-14T23:38:33.172Z,96248.22
2023-05-14T23:41:01.127Z,96250.16
2023-05-14T23:43:28.966Z,96250.28
2023-05-14T23:45:57.101Z,96249.84
2023-05-14T23:48:26.697Z,96246.75
2023-05-14T23:50:54.750Z,96244.09
2023-05-14T23:53:22.576Z,96238.94
2023-05-14T23:55:50.540Z,96239.19
2023-05-14T23:58:18.467Z,96236.78
